Hundred, West Virginia
Current Conditions -  °F | °C
As of 12:53 PM on Thursday 27 Nov 2014 (Local Time) from KCKB Reporting Station
Overcast Overcast  
Wind Chill: 29°   Ceiling: 4300
Heat Index: 35°   Visibility: 10mi
Dew Point: 27°   Wind: 8mph
Humidity: 72%   Direction: 270°W
Pressure: 30.09"   Gusts: NA
Location:  39.68°N, 80.46°W
Report Text: KCKB 271753Z 27007KT 10SM SCT032 OVC043 02/M03 A3009 RMK AO2 SLP195 60001 T00171028 10022 20006 51008
Loading
Personal Weather Stations






























Interactive Weather Map New forecast layout! Learn more

10-Day Weather Forecast

Advertisements
Track Severe Weather on mobile